Time;durP1;ratioP1;P1;durP2;ratioP2;P2;SDS_P1;SDS_P2;PMS_P1;PMS_P2;Temp;Humidity;BMP_temperature;BMP_pressure;BME280_temperature;BME280_humidity;BME280_pressure;Samples;Min_cycle;Max_cycle;Signal;HPM_P1;HPM_P2
2021/10/31 00:01:13;;;;;;;7.85;5.95;;;;;;;13.25;40.48;96489.92;1779964;78;21103;-82
2021/10/31 00:03:39;;;;;;;6.20;4.90;;;;;;;13.28;40.53;96494.75;1797774;77;21074;-82
2021/10/31 00:06:05;;;;;;;6.15;5.35;;;;;;;13.27;40.77;96488.42;1740428;80;21532;-82
2021/10/31 00:08:31;;;;;;;6.53;4.97;;;;;;;13.28;40.61;96487.42;1760457;79;21047;-82
2021/10/31 00:10:57;;;;;;;6.75;5.60;;;;;;;13.30;40.76;96481.50;1770518;77;21064;-82
2021/10/31 00:13:24;;;;;;;7.35;5.65;;;;;;;13.27;40.73;96486.62;1798937;77;21142;-82
2021/10/31 00:15:50;;;;;;;6.35;5.58;;;;;;;13.26;40.76;96491.53;1811266;76;21110;-82
2021/10/31 00:18:16;;;;;;;7.33;5.37;;;;;;;13.27;40.71;96494.44;1832563;77;21095;-82
2021/10/31 00:20:42;;;;;;;9.38;6.45;;;;;;;13.26;40.92;96511.60;1834923;76;21048;-82
2021/10/31 00:23:09;;;;;;;10.55;6.72;;;;;;;13.23;41.11;96516.72;1831498;77;21406;-82
2021/10/31 00:25:34;;;;;;;7.25;5.67;;;;;;;13.19;40.93;96514.20;1804827;77;21155;-82
2021/10/31 00:28:00;;;;;;;9.38;5.62;;;;;;;13.20;40.92;96504.06;1826896;76;21104;-82
2021/10/31 00:30:26;;;;;;;8.90;6.05;;;;;;;13.20;41.00;96510.59;1825377;76;21066;-82
2021/10/31 00:32:52;;;;;;;8.20;6.20;;;;;;;13.19;40.85;96503.27;1758828;81;21103;-82
2021/10/31 00:35:18;;;;;;;9.75;6.25;;;;;;;13.20;41.19;96513.20;1792316;78;21176;-82
2021/10/31 00:37:44;;;;;;;7.20;5.47;;;;;;;13.17;41.31;96504.40;1801020;76;21032;-82
2021/10/31 00:40:11;;;;;;;9.00;5.83;;;;;;;13.12;41.61;96510.70;1836903;76;21134;-82
2021/10/31 00:42:37;;;;;;;8.68;5.80;;;;;;;13.05;41.78;96517.72;1812266;76;21441;-82
2021/10/31 00:45:04;;;;;;;13.22;9.30;;;;;;;13.00;41.67;96517.47;1795570;78;21163;-82
2021/10/31 00:47:30;;;;;;;8.45;6.22;;;;;;;12.95;41.83;96508.92;1814835;77;21044;-82
2021/10/31 00:49:56;;;;;;;8.25;5.55;;;;;;;12.94;41.82;96503.41;1781801;77;21090;-82
2021/10/31 00:52:21;;;;;;;6.53;4.85;;;;;;;12.94;41.60;96511.23;1804867;76;21040;-82
2021/10/31 00:54:49;;;;;;;6.67;5.53;;;;;;;12.97;41.58;96519.97;1799225;78;21521;-82
2021/10/31 00:57:14;;;;;;;6.00;4.37;;;;;;;13.00;41.72;96506.53;1816444;77;21226;-82
2021/10/31 00:59:40;;;;;;;6.58;4.65;;;;;;;12.99;41.68;96504.12;1784377;77;21124;-82
2021/10/31 01:02:10;;;;;;;7.62;6.05;;;;;;;12.99;41.85;96513.25;1815869;77;21980;-82
2021/10/31 01:04:34;;;;;;;10.60;6.85;;;;;;;12.90;41.81;96508.20;1814964;78;21025;-82
2021/10/31 01:07:15;;;;;;;9.15;5.80;;;;;;;12.91;41.97;96510.31;1804132;78;21047;-82
2021/10/31 01:12:53;;;;;;;7.12;4.83;;;;;;;12.82;42.02;96517.48;1831583;76;21129;-82
2021/10/31 01:18:55;;;;;;;8.33;5.97;;;;;;;12.81;41.80;96518.48;1836886;77;21145;-82
2021/10/31 01:21:55;;;;;;;7.60;4.97;;;;;;;12.82;41.78;96517.98;1806085;76;21168;-82
2021/10/31 01:24:38;;;;;;;7.42;4.62;;;;;;;12.80;41.81;96533.81;1771472;77;21109;-82
2021/10/31 01:27:30;;;;;;;5.97;4.42;;;;;;;12.78;41.83;96538.42;1754237;81;21529;-82
2021/10/31 01:32:58;;;;;;;6.12;4.92;;;;;;;12.71;41.99;96539.39;1767897;78;21097;-82
2021/10/31 01:36:03;;;;;;;6.28;4.67;;;;;;;12.65;42.15;96535.72;1791599;79;21154;-82
2021/10/31 01:38:45;;;;;;;6.30;4.97;;;;;;;12.59;42.50;96542.52;1792848;79;21138;-82
2021/10/31 01:41:15;;;;;;;;;;;;;;;12.52;42.80;96531.72;1795842;79;21628;-82
2021/10/31 01:44:00;;;;;;;5.37;4.30;;;;;;;12.48;42.88;96539.61;1780140;78;20086;-82
2021/10/31 01:47:04;;;;;;;6.03;4.67;;;;;;;12.41;42.77;96530.95;1789585;78;21066;-82
2021/10/31 01:49:50;;;;;;;6.45;4.20;;;;;;;12.39;42.94;96532.95;1786439;78;21106;-82
2021/10/31 01:52:21;;;;;;;6.95;5.08;;;;;;;12.33;43.14;96539.20;1790124;79;21174;-82
2021/10/31 01:54:55;;;;;;;6.37;4.17;;;;;;;12.27;43.28;96543.88;1771607;78;21113;-82
2021/10/31 01:57:22;;;;;;;5.75;4.78;;;;;;;12.20;43.44;96551.30;1783049;79;21090;-82
2021/10/31 01:59:55;;;;;;;5.85;4.37;;;;;;;12.14;43.63;96556.78;1768345;79;21063;-82
2021/10/31 02:02:21;;;;;;;7.45;5.53;;;;;;;12.06;43.31;96552.20;1787490;79;21062;-82
2021/10/31 02:04:47;;;;;;;5.97;4.62;;;;;;;12.11;43.32;96553.75;1798863;78;21433;-82
2021/10/31 02:07:12;;;;;;;5.95;4.67;;;;;;;12.11;43.89;96559.77;1791609;78;21031;-82
2021/10/31 02:09:38;;;;;;;5.58;4.30;;;;;;;12.02;44.40;96553.86;1793036;78;21216;-82
2021/10/31 02:12:07;;;;;;;5.75;3.98;;;;;;;11.85;45.12;96560.80;1787565;79;21063;-82
2021/10/31 02:14:33;;;;;;;6.12;4.10;;;;;;;11.66;45.36;96552.57;1782341;79;21458;-82
2021/10/31 02:16:58;;;;;;;6.25;4.55;;;;;;;11.50;45.35;96551.49;1790083;79;21197;-82
2021/10/31 02:19:38;;;;;;;6.53;4.62;;;;;;;11.37;45.44;96549.53;1793515;78;21113;-82
2021/10/31 02:22:04;;;;;;;6.58;4.62;;;;;;;11.28;45.88;96544.14;1798959;79;21015;-81
2021/10/31 02:24:30;;;;;;;4.42;3.90;;;;;;;11.15;46.63;96544.47;1785410;79;21089;-82
2021/10/31 02:26:56;;;;;;;6.60;5.20;;;;;;;11.00;46.72;96541.37;1780733;80;21434;-82
2021/10/31 02:29:21;;;;;;;5.47;4.37;;;;;;;10.85;47.00;96539.77;1782984;80;21125;-82
2021/10/31 02:31:47;;;;;;;6.28;4.62;;;;;;;10.74;47.10;96546.23;1797552;79;21129;-82
2021/10/31 02:34:14;;;;;;;5.08;3.92;;;;;;;10.74;46.60;96547.05;1791730;78;21216;-82
2021/10/31 02:36:40;;;;;;;4.50;3.95;;;;;;;10.75;47.08;96547.36;1786904;79;21058;-82
2021/10/31 02:39:06;;;;;;;5.58;4.35;;;;;;;10.80;47.27;96543.72;1788117;80;21803;-81
2021/10/31 02:41:33;;;;;;;6.60;5.00;;;;;;;10.85;46.58;96543.66;1780171;80;21058;-82
2021/10/31 02:43:59;;;;;;;5.72;5.20;;;;;;;10.97;46.44;96547.44;1799358;79;21139;-81
2021/10/31 02:46:26;;;;;;;7.10;4.97;;;;;;;11.10;46.56;96548.92;1797722;79;21451;-81
2021/10/31 02:48:51;;;;;;;7.42;5.00;;;;;;;11.14;46.25;96548.86;1773766;79;21058;-81
2021/10/31 02:51:28;;;;;;;6.67;5.00;;;;;;;11.24;46.49;96547.30;1786845;78;21091;-82
2021/10/31 02:53:58;;;;;;;6.60;5.20;;;;;;;11.26;46.16;96549.22;1789554;78;21074;-82
2021/10/31 02:56:28;;;;;;;7.50;5.53;;;;;;;11.32;45.97;96557.09;1786732;78;21087;-82
2021/10/31 02:58:58;;;;;;;8.33;5.55;;;;;;;11.36;46.42;96547.13;1790909;78;21410;-82
2021/10/31 03:01:24;;;;;;;6.85;5.00;;;;;;;11.37;45.81;96540.43;1759838;79;21430;-82
2021/10/31 03:03:53;;;;;;;6.45;5.70;;;;;;;11.47;45.57;96538.05;1774716;79;21147;-82
2021/10/31 03:06:20;;;;;;;6.67;4.87;;;;;;;11.54;45.79;96535.01;1755815;80;21640;-82
2021/10/31 03:08:46;;;;;;;5.60;4.78;;;;;;;11.55;45.48;96535.32;1797750;78;21502;-81
2021/10/31 03:11:12;;;;;;;6.40;4.90;;;;;;;11.54;45.32;96529.31;1755583;78;21598;-82
2021/10/31 03:13:38;;;;;;;6.28;5.08;;;;;;;11.54;45.27;96526.70;1794764;76;21135;-82
2021/10/31 03:16:05;;;;;;;5.97;5.15;;;;;;;11.56;45.16;96532.56;1785753;79;21240;-81
2021/10/31 03:18:31;;;;;;;6.20;4.45;;;;;;;11.61;44.91;96534.60;1790383;79;21086;-82
2021/10/31 03:20:57;;;;;;;5.95;5.00;;;;;;;11.59;45.52;96538.70;1788189;79;21032;-82
2021/10/31 03:23:23;;;;;;;6.37;4.22;;;;;;;11.44;46.51;96526.22;1736504;81;22121;-81
2021/10/31 03:25:48;;;;;;;5.33;4.62;;;;;;;11.20;46.46;96537.72;1744536;79;21162;-82
2021/10/31 03:28:14;;;;;;;5.08;4.50;;;;;;;10.95;47.53;96539.02;1751639;79;21115;-81
2021/10/31 03:30:40;;;;;;;7.35;4.47;;;;;;;10.80;47.67;96544.21;1786684;79;21108;-81
2021/10/31 03:33:06;;;;;;;6.10;5.05;;;;;;;10.69;47.96;96543.34;1727500;81;21210;-81
2021/10/31 03:35:31;;;;;;;4.70;4.30;;;;;;;10.55;48.25;96541.53;1768846;79;21553;-81
2021/10/31 03:37:57;;;;;;;6.20;4.62;;;;;;;10.37;48.53;96542.67;1749107;80;21127;-82
2021/10/31 03:40:23;;;;;;;5.60;4.30;;;;;;;10.20;49.67;96535.48;1771520;80;21087;-81
2021/10/31 03:42:49;;;;;;;7.12;4.97;;;;;;;10.01;49.95;96545.05;1752402;80;21131;-82
2021/10/31 03:45:15;;;;;;;6.00;4.72;;;;;;;9.79;50.15;96535.00;1753291;80;21051;-81
2021/10/31 03:50:08;;;;;;;5.50;4.58;;;;;;;9.47;51.61;96546.39;1749941;79;21079;-82
2021/10/31 03:52:34;;;;;;;6.50;4.53;;;;;;;9.39;51.58;96549.50;1746377;79;21058;-81
2021/10/31 03:55:00;;;;;;;4.25;3.80;;;;;;;9.32;51.71;96553.27;1781666;79;21040;-81
2021/10/31 03:57:26;;;;;;;7.17;3.83;;;;;;;9.29;51.81;96535.46;1760655;78;21525;-81
2021/10/31 03:59:52;;;;;;;5.62;4.08;;;;;;;9.24;52.29;96545.02;1755826;79;21220;-81
2021/10/31 04:02:18;;;;;;;6.05;4.42;;;;;;;9.20;52.07;96550.72;1765528;80;21497;-81
2021/10/31 04:04:44;;;;;;;4.92;4.08;;;;;;;9.16;52.42;96557.23;1759912;79;21136;-81
2021/10/31 04:07:10;;;;;;;4.83;4.03;;;;;;;9.09;52.54;96551.08;1760032;79;21466;-81
2021/10/31 04:09:36;;;;;;;6.53;4.65;;;;;;;8.99;52.52;96564.25;1756283;78;21055;-81
2021/10/31 04:12:02;;;;;;;8.90;4.65;;;;;;;8.94;53.10;96535.42;1781738;78;21118;-81
2021/10/31 04:14:28;;;;;;;6.90;4.85;;;;;;;8.87;52.46;96562.50;1764435;80;21453;-81
2021/10/31 04:16:55;;;;;;;6.28;4.45;;;;;;;8.87;53.43;96555.22;1724103;80;21090;-81
2021/10/31 04:19:20;;;;;;;5.67;4.35;;;;;;;8.84;53.57;96562.84;1777471;79;21063;-81
2021/10/31 04:21:46;;;;;;;4.92;4.42;;;;;;;8.80;53.43;96568.04;1775599;79;21054;-81
2021/10/31 04:24:12;;;;;;;5.80;3.77;;;;;;;8.78;53.37;96567.86;1752978;80;21437;-81
2021/10/31 04:26:37;;;;;;;6.60;4.10;;;;;;;8.73;53.38;96560.10;1742790;81;21055;-81
2021/10/31 04:29:03;;;;;;;4.03;3.60;;;;;;;8.70;53.48;96567.41;1763422;80;21100;-81
2021/10/31 04:31:29;;;;;;;4.58;4.08;;;;;;;8.69;53.30;96571.78;1781422;79;21520;-81
2021/10/31 04:33:55;;;;;;;5.47;3.92;;;;;;;8.70;53.68;96566.91;1793981;78;21402;-81
2021/10/31 04:36:22;;;;;;;4.67;3.85;;;;;;;8.63;53.35;96574.23;1781428;78;21076;-81
2021/10/31 04:38:52;;;;;;;4.20;3.65;;;;;;;8.56;54.08;96568.88;1782931;78;21091;-81
2021/10/31 04:41:15;;;;;;;5.87;3.47;;;;;;;8.49;53.99;96573.59;1784999;78;21020;-81
2021/10/31 04:43:41;;;;;;;6.60;4.17;;;;;;;8.40;55.18;96572.30;1786278;78;22338;-82
2021/10/31 04:46:07;;;;;;;5.08;3.62;;;;;;;8.31;54.80;96559.02;1766452;79;21591;-81
2021/10/31 04:48:34;;;;;;;5.17;3.37;;;;;;;8.29;54.20;96564.82;1780879;79;21141;-81
2021/10/31 04:51:00;;;;;;;5.85;4.10;;;;;;;8.28;54.47;96570.16;1788009;75;21067;-81
2021/10/31 04:53:26;;;;;;;4.95;3.70;;;;;;;8.30;54.88;96562.58;1815322;77;21209;-81
2021/10/31 04:55:51;;;;;;;9.98;4.67;;;;;;;8.27;54.97;96568.06;1802289;77;21191;-81
2021/10/31 04:58:17;;;;;;;4.75;3.42;;;;;;;8.25;54.50;96570.01;1809913;75;21548;-81
2021/10/31 05:00:43;;;;;;;5.03;3.75;;;;;;;8.25;54.73;96571.30;1819611;77;21107;-81
2021/10/31 05:03:09;;;;;;;4.97;4.05;;;;;;;8.26;54.65;96574.21;1811191;77;21043;-81
2021/10/31 05:05:34;;;;;;;4.97;3.62;;;;;;;8.31;53.03;96569.86;1781345;79;21126;-81
2021/10/31 05:08:01;;;;;;;5.20;4.22;;;;;;;8.52;53.61;96579.74;1816462;75;21137;-81
2021/10/31 05:10:27;;;;;;;4.10;3.02;;;;;;;8.54;54.22;96572.13;1818117;77;21176;-81
2021/10/31 05:12:53;;;;;;;5.00;4.12;;;;;;;8.51;54.10;96569.06;1802331;77;21110;-81
2021/10/31 05:15:19;;;;;;;4.47;3.30;;;;;;;8.46;53.96;96563.09;1814683;77;21118;-81
2021/10/31 05:17:45;;;;;;;5.10;3.52;;;;;;;8.45;53.55;96572.28;1799729;77;21050;-81
2021/10/31 05:20:11;;;;;;;4.97;3.12;;;;;;;8.47;53.45;96569.88;1777185;77;21087;-81
2021/10/31 05:22:37;;;;;;;4.67;3.47;;;;;;;8.71;51.20;96573.71;1800604;77;21047;-81
2021/10/31 05:25:05;;;;;;;4.53;3.40;;;;;;;9.12;50.58;96561.14;1792952;78;21021;-81
2021/10/31 05:27:31;;;;;;;3.80;3.30;;;;;;;9.38;50.33;96558.25;1778870;78;21063;-81
2021/10/31 05:29:57;;;;;;;4.45;3.15;;;;;;;9.77;48.64;96552.53;1815531;76;21538;-81
2021/10/31 05:32:24;;;;;;;5.55;2.95;;;;;;;10.15;48.44;96549.98;1794566;79;21036;-81
2021/10/31 05:34:50;;;;;;;3.75;3.33;;;;;;;10.41;47.69;96554.81;1832877;76;21422;-81
2021/10/31 05:37:16;;;;;;;3.30;3.00;;;;;;;10.64;46.61;96553.47;1813253;75;21051;-82
2021/10/31 05:39:42;;;;;;;4.10;3.50;;;;;;;10.79;45.76;96553.80;1819888;76;21083;-81
2021/10/31 05:42:08;;;;;;;4.12;3.50;;;;;;;10.95;44.75;96554.61;1822124;77;21102;-81
2021/10/31 05:44:34;;;;;;;3.72;2.95;;;;;;;11.15;44.97;96553.08;1817171;78;21146;-82
2021/10/31 05:47:01;;;;;;;7.45;5.37;;;;;;;11.23;44.79;96561.29;1826437;78;21020;-81
2021/10/31 05:49:27;;;;;;;9.35;5.62;;;;;;;11.29;44.14;96560.55;1795452;77;21052;-81
2021/10/31 05:51:53;;;;;;;8.30;6.50;;;;;;;11.35;43.93;96563.22;1796409;77;21023;-81
2021/10/31 05:54:18;;;;;;;19.35;17.23;;;;;;;11.45;44.20;96572.55;1838787;76;21082;-81
2021/10/31 05:56:44;;;;;;;12.15;10.82;;;;;;;11.47;44.42;96580.98;1737617;79;21058;-81
2021/10/31 05:59:10;;;;;;;9.48;8.50;;;;;;;11.45;43.99;96585.56;1757473;80;21489;-81
2021/10/31 06:01:36;;;;;;;8.90;6.17;;;;;;;11.41;44.55;96585.93;1801869;79;21094;-81
2021/10/31 06:04:02;;;;;;;5.87;5.12;;;;;;;11.34;44.41;96585.03;1779563;80;21127;-81
2021/10/31 06:06:28;;;;;;;6.05;3.87;;;;;;;11.20;45.17;96607.95;1773653;78;21069;-81
2021/10/31 06:08:54;;;;;;;4.55;3.70;;;;;;;11.20;45.17;96607.95;1817074;75;21099;-81
2021/10/31 06:11:20;;;;;;;5.10;3.55;;;;;;;11.07;45.46;96607.30;1819149;77;21361;-81
2021/10/31 06:13:45;;;;;;;3.70;3.30;;;;;;;10.98;46.23;96615.34;1838340;76;21200;-81
2021/10/31 06:16:11;;;;;;;5.03;3.87;;;;;;;10.92;45.11;96622.08;1777710;80;21137;-81
2021/10/31 06:18:37;;;;;;;4.65;3.50;;;;;;;10.98;44.98;96612.75;1809387;78;21159;-81
2021/10/31 06:21:04;;;;;;;5.30;3.17;;;;;;;11.04;44.74;96615.44;1818135;77;21138;-81
2021/10/31 06:23:29;;;;;;;5.20;3.65;;;;;;;11.09;45.13;96617.02;1803434;77;21131;-81
2021/10/31 06:25:55;;;;;;;3.70;3.00;;;;;;;11.11;44.45;96614.24;1802053;77;21126;-81
2021/10/31 06:28:21;;;;;;;5.97;3.72;;;;;;;11.14;44.75;96621.69;1795783;78;21142;-81
2021/10/31 06:30:47;;;;;;;5.05;3.05;;;;;;;11.14;44.97;96619.08;1797452;77;21514;-81
2021/10/31 06:33:13;;;;;;;4.25;3.62;;;;;;;11.11;44.92;96617.65;1808309;77;21185;-81
2021/10/31 06:35:39;;;;;;;4.97;3.45;;;;;;;11.06;45.50;96608.75;1816224;77;21165;-81
2021/10/31 06:38:05;;;;;;;3.33;3.00;;;;;;;11.02;44.81;96609.61;1823474;77;21131;-81
2021/10/31 06:40:31;;;;;;;4.28;3.12;;;;;;;11.04;44.96;96601.63;1820533;77;21067;-81
2021/10/31 06:42:57;;;;;;;4.62;3.00;;;;;;;11.04;44.73;96596.42;1803437;79;21227;-81
2021/10/31 06:45:23;;;;;;;3.80;3.02;;;;;;;11.07;45.03;96591.70;1830450;75;21118;-81
2021/10/31 06:47:48;;;;;;;3.87;2.67;;;;;;;11.10;44.65;96590.52;1803329;77;21074;-81
2021/10/31 06:50:14;;;;;;;4.62;3.02;;;;;;;11.19;44.65;96590.73;1822558;75;21078;-81
2021/10/31 06:52:40;;;;;;;4.17;3.40;;;;;;;11.25;44.28;96590.03;1839861;75;21389;-81
2021/10/31 06:55:10;;;;;;;3.90;2.92;;;;;;;11.34;44.05;96585.52;1798203;78;21200;-81
2021/10/31 06:57:34;;;;;;;4.08;2.60;;;;;;;11.43;43.44;96583.95;1800290;77;21008;-81
2021/10/31 07:00:00;;;;;;;3.52;2.72;;;;;;;11.62;43.02;96590.38;1792354;77;21059;-81
2021/10/31 07:02:26;;;;;;;4.42;3.35;;;;;;;11.81;42.62;96594.22;1786047;77;21099;-81
2021/10/31 07:04:51;;;;;;;3.95;2.87;;;;;;;11.90;42.85;96588.41;1795222;77;21036;-81
2021/10/31 07:07:18;;;;;;;3.50;3.08;;;;;;;11.94;42.58;96583.94;1850846;76;21390;-81
2021/10/31 07:09:45;;;;;;;3.85;2.98;;;;;;;12.02;41.82;96586.41;1833880;76;21071;-82
2021/10/31 07:12:11;;;;;;;3.72;2.70;;;;;;;12.15;41.88;96588.84;1758439;80;21071;-81
2021/10/31 07:14:36;;;;;;;3.00;2.70;;;;;;;12.22;41.83;96589.73;1759670;80;21039;-81
2021/10/31 07:17:03;;;;;;;3.80;3.15;;;;;;;12.27;41.65;96591.27;1769361;79;21036;-82
2021/10/31 07:19:29;;;;;;;4.00;2.62;;;;;;;12.32;41.82;96591.50;1779241;78;21546;-81
2021/10/31 07:21:54;;;;;;;3.30;2.95;;;;;;;12.38;41.06;96593.87;1727797;80;21135;-82
2021/10/31 07:24:20;;;;;;;2.90;2.40;;;;;;;12.45;41.38;96594.23;1742004;80;21155;-81
2021/10/31 07:26:47;;;;;;;3.85;3.02;;;;;;;12.47;40.86;96589.62;1745684;79;21143;-81
2021/10/31 07:29:13;;;;;;;6.58;5.97;;;;;;;12.52;41.08;96587.25;1765494;77;21105;-81
2021/10/31 07:31:42;;;;;;;5.47;3.98;;;;;;;12.56;40.93;96592.92;1723153;82;21075;-81
2021/10/31 07:34:10;;;;;;;4.15;3.30;;;;;;;12.58;41.01;96598.75;1727021;81;21170;-81
2021/10/31 07:36:37;;;;;;;4.35;3.50;;;;;;;12.59;41.03;96599.86;1760725;79;21064;-81
2021/10/31 07:39:03;;;;;;;4.15;3.00;;;;;;;12.59;41.11;96597.75;1756556;79;21162;-81
2021/10/31 07:41:29;;;;;;;2.67;1.85;;;;;;;12.61;40.88;96597.06;1775094;78;21150;-82
2021/10/31 07:43:55;;;;;;;8.68;4.65;;;;;;;12.66;40.16;96610.83;1750127;81;21121;-82
2021/10/31 07:46:22;;;;;;;5.08;3.52;;;;;;;12.70;40.79;96605.56;1773194;79;21504;-81
2021/10/31 07:48:48;;;;;;;4.65;3.00;;;;;;;12.74;40.73;96602.88;1791790;78;21055;-81
2021/10/31 07:51:13;;;;;;;3.37;2.67;;;;;;;12.77;41.04;96602.50;1788331;79;22649;-81
2021/10/31 07:53:42;;;;;;;3.83;3.35;;;;;;;12.78;41.24;96607.52;1786914;79;21109;-81
2021/10/31 07:56:10;;;;;;;4.70;3.20;;;;;;;12.78;41.24;96602.80;1795393;78;21168;-81
2021/10/31 07:58:37;;;;;;;4.40;3.05;;;;;;;12.80;41.43;96607.33;1790193;79;21158;-81
2021/10/31 08:01:04;;;;;;;5.28;2.77;;;;;;;12.77;42.34;96611.13;1786065;79;21099;-81
2021/10/31 08:03:30;;;;;;;4.12;3.45;;;;;;;12.69;42.34;96606.53;1750833;79;21090;-81
2021/10/31 08:05:56;;;;;;;3.15;2.52;;;;;;;12.60;42.74;96607.98;1759546;81;21049;-81
2021/10/31 08:08:22;;;;;;;3.42;2.08;;;;;;;12.53;43.30;96603.73;1786595;78;21146;-81
2021/10/31 08:10:49;;;;;;;5.08;3.02;;;;;;;12.46;43.53;96600.25;1783085;79;21079;-81
2021/10/31 08:13:21;;;;;;;4.70;4.00;;;;;;;12.36;44.17;96605.77;1815529;77;21426;-81
2021/10/31 08:15:47;;;;;;;3.67;2.47;;;;;;;12.26;43.91;96603.98;1806167;77;21102;-82
2021/10/31 08:18:13;;;;;;;6.03;3.70;;;;;;;12.20;45.04;96608.62;1813532;76;21019;-82
2021/10/31 08:20:38;;;;;;;4.37;2.77;;;;;;;12.17;43.73;96605.09;1827295;76;21059;-82
2021/10/31 08:23:04;;;;;;;3.02;2.62;;;;;;;12.25;44.58;96604.98;1785488;77;21101;-81
2021/10/31 08:25:30;;;;;;;3.62;3.17;;;;;;;12.23;44.61;96602.56;1777936;78;21518;-81
2021/10/31 08:27:57;;;;;;;3.65;2.80;;;;;;;12.29;45.36;96608.32;1792506;77;21099;-82
2021/10/31 08:30:29;;;;;;;3.60;2.62;;;;;;;12.27;45.38;96605.59;1794882;78;21054;-81
2021/10/31 08:32:50;;;;;;;4.67;2.70;;;;;;;12.23;45.61;96603.87;1832385;75;21463;-81
2021/10/31 08:35:17;;;;;;;3.40;2.85;;;;;;;12.18;46.14;96610.11;1788889;77;21105;-82
2021/10/31 08:37:44;;;;;;;4.00;2.83;;;;;;;12.14;46.50;96602.36;1804447;78;21124;-81
2021/10/31 08:40:11;;;;;;;4.50;3.70;;;;;;;12.12;45.90;96605.66;1827605;77;21501;-82
2021/10/31 08:42:37;;;;;;;4.28;3.17;;;;;;;12.19;44.73;96602.60;1806861;75;21055;-81
2021/10/31 08:45:04;;;;;;;3.98;3.10;;;;;;;12.30;46.81;96602.11;1784187;79;21093;-81
2021/10/31 08:47:31;;;;;;;6.15;3.98;;;;;;;12.32;46.31;96601.42;1831298;75;21068;-81
2021/10/31 08:49:57;;;;;;;4.35;2.87;;;;;;;12.39;46.32;96605.41;1819838;77;21028;-81
2021/10/31 08:52:23;;;;;;;3.95;3.30;;;;;;;12.43;46.85;96596.22;1834245;75;21484;-81
2021/10/31 08:54:49;;;;;;;3.80;2.90;;;;;;;12.47;46.80;96594.84;1815242;78;21046;-81
2021/10/31 08:57:14;;;;;;;4.12;3.17;;;;;;;12.50;47.10;96594.95;1794793;78;21112;-82
2021/10/31 08:59:41;;;;;;;4.00;2.92;;;;;;;12.51;47.06;96592.16;1812045;78;21099;-81
2021/10/31 09:02:07;;;;;;;5.30;3.80;;;;;;;12.57;46.69;96597.95;1816635;78;21498;-82
2021/10/31 09:04:34;;;;;;;5.20;3.92;;;;;;;12.64;47.37;96595.38;1815353;77;21090;-81
2021/10/31 09:07:01;;;;;;;4.50;3.45;;;;;;;12.65;47.78;96591.77;1816111;78;21084;-82
2021/10/31 09:09:26;;;;;;;4.72;3.37;;;;;;;12.68;47.71;96594.49;1812173;78;21582;-82
2021/10/31 09:11:52;;;;;;;4.65;4.05;;;;;;;12.71;47.37;96594.14;1810006;78;21447;-81
2021/10/31 09:14:19;;;;;;;5.28;3.50;;;;;;;12.78;47.15;96588.46;1814481;77;21067;-81
2021/10/31 09:16:44;;;;;;;4.78;3.75;;;;;;;12.84;46.35;96581.17;1810782;76;21166;-81
2021/10/31 09:19:10;;;;;;;4.17;3.30;;;;;;;12.93;48.02;96579.54;1821669;78;21096;-81
2021/10/31 09:21:36;;;;;;;6.35;3.80;;;;;;;13.02;47.38;96576.80;1801733;77;21145;-81
2021/10/31 09:24:03;;;;;;;5.58;4.67;;;;;;;13.14;47.60;96576.03;1805965;77;21180;-82
2021/10/31 09:26:29;;;;;;;7.17;4.87;;;;;;;13.23;47.19;96577.23;1837655;75;20991;-81
2021/10/31 09:28:56;;;;;;;4.25;3.65;;;;;;;13.31;47.18;96564.81;1841807;77;21042;-82
2021/10/31 09:31:22;;;;;;;3.37;2.92;;;;;;;13.43;47.58;96567.68;1822543;76;21067;-81
2021/10/31 09:33:49;;;;;;;3.87;3.22;;;;;;;13.49;47.71;96570.30;1808895;77;21125;-81
2021/10/31 09:36:15;;;;;;;4.72;3.15;;;;;;;13.55;48.31;96564.02;1792911;79;21427;-81
2021/10/31 09:38:41;;;;;;;7.00;4.67;;;;;;;13.60;47.95;96568.95;1766962;80;21039;-81
2021/10/31 09:41:07;;;;;;;5.30;4.45;;;;;;;13.65;47.15;96562.63;1741956;78;21117;-82
2021/10/31 09:43:44;;;;;;;5.22;3.90;;;;;;;13.74;47.49;96562.77;1759738;79;21593;-81
2021/10/31 09:46:01;;;;;;;6.12;4.85;;;;;;;13.85;47.31;96565.82;1778189;78;21091;-81
2021/10/31 09:48:27;;;;;;;6.25;4.78;;;;;;;13.97;46.07;96557.69;1779463;79;21389;-81
2021/10/31 09:50:53;;;;;;;5.25;3.80;;;;;;;14.05;45.07;96558.31;1775412;79;21062;-82
2021/10/31 09:53:20;;;;;;;6.87;4.87;;;;;;;14.13;46.54;96557.31;1776987;79;21025;-82
2021/10/31 09:55:47;;;;;;;7.05;4.70;;;;;;;14.20;45.36;96544.27;1792347;78;21151;-82
2021/10/31 09:58:28;;;;;;;4.95;3.67;;;;;;;14.31;45.39;96544.45;1772781;79;21140;-81
2021/10/31 10:00:57;;;;;;;4.08;3.47;;;;;;;14.41;46.66;96548.78;1805663;78;21117;-82
2021/10/31 10:06:20;;;;;;;5.42;4.10;;;;;;;14.58;46.07;96545.29;1801179;78;21505;-82
2021/10/31 10:08:59;;;;;;;6.45;4.22;;;;;;;14.65;45.75;96536.95;1800830;77;21040;-82
2021/10/31 10:11:25;;;;;;;7.62;5.37;;;;;;;14.74;46.40;96541.45;1774072;79;21075;-82
2021/10/31 10:13:51;;;;;;;5.62;3.92;;;;;;;14.81;45.12;96540.95;1818565;76;21528;-82
2021/10/31 10:16:29;;;;;;;5.85;4.37;;;;;;;14.93;46.17;96532.75;1787223;77;21255;-82
2021/10/31 10:18:57;;;;;;;6.72;4.62;;;;;;;14.96;46.03;96537.57;1759574;78;21100;-82
2021/10/31 10:21:29;;;;;;;5.37;3.90;;;;;;;15.04;44.60;96534.45;1830988;77;21486;-82
2021/10/31 10:24:01;;;;;;;7.17;4.62;;;;;;;15.13;42.24;96531.89;1818633;77;21018;-82
2021/10/31 10:26:33;;;;;;;5.60;4.10;;;;;;;15.24;42.93;96526.02;1784649;78;21123;-82
2021/10/31 10:29:06;;;;;;;5.95;4.90;;;;;;;15.33;43.94;96527.92;1833032;77;21462;-82
2021/10/31 10:31:32;;;;;;;7.28;4.53;;;;;;;15.38;41.92;96519.73;1830080;77;21429;-82
2021/10/31 10:33:59;;;;;;;5.50;4.40;;;;;;;15.46;42.33;96514.77;1782005;77;21104;-82
2021/10/31 10:36:25;;;;;;;6.05;4.47;;;;;;;15.55;42.98;96510.88;1831819;76;21043;-82
2021/10/31 10:39:16;;;;;;;6.45;4.65;;;;;;;15.63;42.36;96505.95;1828963;77;21491;-82
2021/10/31 10:41:50;;;;;;;5.83;4.37;;;;;;;15.68;41.66;96508.73;1819994;78;21027;-83
2021/10/31 10:44:35;;;;;;;5.40;4.30;;;;;;;15.72;41.95;96504.67;1788754;79;21529;-82
2021/10/31 10:47:10;;;;;;;4.55;3.98;;;;;;;15.76;42.61;96497.48;1793855;79;21390;-82
2021/10/31 10:49:38;;;;;;;6.25;4.22;;;;;;;15.86;42.28;96501.77;1759399;79;21430;-82
2021/10/31 10:52:24;;;;;;;7.10;4.78;;;;;;;15.94;41.20;96497.27;1781621;80;23969;-82
2021/10/31 10:54:58;;;;;;;6.12;4.58;;;;;;;15.99;39.62;96498.27;1795743;78;21082;-82
2021/10/31 10:57:26;;;;;;;5.53;4.37;;;;;;;16.08;40.01;96497.47;1768266;79;21458;-81
2021/10/31 11:00:03;;;;;;;5.20;3.75;;;;;;;16.15;41.62;96495.12;1785043;78;21205;-82
2021/10/31 11:02:29;;;;;;;5.47;3.87;;;;;;;16.19;39.76;96492.35;1765556;80;21122;-82
2021/10/31 11:04:59;;;;;;;5.15;4.20;;;;;;;16.28;39.86;96496.03;1770712;80;21048;-82
2021/10/31 11:07:35;;;;;;;6.78;4.40;;;;;;;16.34;39.86;96495.97;1786407;79;21182;-82
2021/10/31 11:10:01;;;;;;;6.40;4.50;;;;;;;16.42;40.13;96491.74;1773753;79;21067;-82
2021/10/31 11:12:35;;;;;;;7.65;4.58;;;;;;;16.49;41.85;96489.08;1758333;79;21148;-82
2021/10/31 11:15:13;;;;;;;5.08;4.42;;;;;;;16.51;42.29;96485.73;1799626;77;21157;-82
2021/10/31 11:17:40;;;;;;;4.62;4.10;;;;;;;16.53;41.09;96479.75;1781616;78;21166;-82
2021/10/31 11:20:08;;;;;;;6.37;4.37;;;;;;;16.58;40.54;96480.41;1779106;79;21154;-82
2021/10/31 11:22:34;;;;;;;4.60;3.92;;;;;;;16.63;41.01;96472.71;1791369;78;21038;-82
2021/10/31 11:25:00;;;;;;;5.42;4.37;;;;;;;16.66;41.24;96477.00;1758234;79;21063;-83
2021/10/31 11:27:28;;;;;;;6.20;4.92;;;;;;;16.71;41.69;96475.86;1798591;79;21153;-82
2021/10/31 11:32:22;;;;;;;4.20;3.80;;;;;;;16.76;41.65;96464.73;1775428;78;21051;-82
2021/10/31 11:34:56;;;;;;;5.95;4.20;;;;;;;16.75;40.27;96458.66;1787062;79;21019;-82
2021/10/31 11:37:28;;;;;;;6.28;4.10;;;;;;;16.79;41.55;96455.91;1770905;80;21077;-82
2021/10/31 11:42:28;;;;;;;5.97;4.70;;;;;;;16.96;41.26;96460.58;1783645;78;21150;-82
2021/10/31 11:47:29;;;;;;;6.15;4.10;;;;;;;17.05;40.19;96453.98;1778299;79;21122;-82
2021/10/31 11:50:01;;;;;;;5.87;4.30;;;;;;;17.10;41.26;96462.03;1760425;78;21174;-82
2021/10/31 11:52:58;;;;;;;5.85;4.35;;;;;;;17.11;40.02;96454.44;1748346;80;21190;-82
2021/10/31 11:55:30;;;;;;;6.12;4.75;;;;;;;17.15;40.52;96452.97;1824607;78;22765;-82
2021/10/31 12:00:27;;;;;;;5.65;4.28;;;;;;;17.19;39.20;96445.45;1788872;77;21135;-82
2021/10/31 12:03:03;;;;;;;5.90;4.17;;;;;;;17.22;40.34;96440.55;1794701;78;21050;-82